createdAt,value
2023-02-19T00:02:47.865Z,100349.66
2023-02-19T00:05:51.145Z,100353.06
2023-02-19T00:08:54.912Z,100346.38
2023-02-19T00:11:58.268Z,100327.12
2023-02-19T00:15:01.236Z,100331.06
2023-02-19T00:18:05.412Z,100332.37
2023-02-19T00:21:09.406Z,100323.94
2023-02-19T00:24:14.464Z,100325.28
2023-02-19T00:27:17.349Z,100338.63
2023-02-19T00:30:20.993Z,100347.75
2023-02-19T00:33:24.104Z,100349.06
2023-02-19T00:36:29.046Z,100354.66
2023-02-19T00:39:32.319Z,100355.72
2023-02-19T00:42:35.580Z,100373.00
2023-02-19T00:45:38.846Z,100374.34
2023-02-19T00:49:02.395Z,100372.97
2023-02-19T00:52:05.620Z,100382.06
2023-02-19T00:55:09.706Z,100390.56
2023-02-19T00:58:12.760Z,100379.41
2023-02-19T01:01:16.724Z,100381.97
2023-02-19T01:04:21.128Z,100381.50
2023-02-19T01:07:24.647Z,100375.41
2023-02-19T01:10:29.352Z,100377.00
2023-02-19T01:13:33.577Z,100368.75
2023-02-19T01:16:38.346Z,100367.16
2023-02-19T01:19:42.087Z,100356.56
2023-02-19T01:22:44.994Z,100352.31
2023-02-19T01:25:48.320Z,100357.69
2023-02-19T01:28:51.808Z,100348.16
2023-02-19T01:31:55.679Z,100354.84
2023-02-19T01:34:58.754Z,100344.97
2023-02-19T01:38:02.115Z,100350.28
2023-02-19T01:41:07.926Z,100351.38
2023-02-19T01:44:12.233Z,100338.91
2023-02-19T01:47:18.600Z,100342.88
2023-02-19T01:50:26.876Z,100343.94
2023-02-19T01:53:39.819Z,100332.78
2023-02-19T01:56:44.952Z,100335.44
2023-02-19T01:59:51.160Z,100338.66
2023-02-19T02:02:56.889Z,100339.69
2023-02-19T02:06:07.684Z,100345.22
2023-02-19T02:09:29.929Z,100332.22
2023-02-19T02:12:33.708Z,100336.44
2023-02-19T02:15:59.335Z,100329.97
2023-02-19T02:19:25.539Z,100331.06
2023-02-19T02:22:45.821Z,100338.03
2023-02-19T02:26:02.282Z,100321.63
2023-02-19T02:29:31.884Z,100317.38
2023-02-19T02:33:00.355Z,100328.53
2023-02-19T02:36:12.558Z,100336.25
2023-02-19T02:39:24.001Z,100344.25
2023-02-19T02:42:29.886Z,100347.12
2023-02-19T02:45:37.305Z,100351.66
2023-02-19T02:48:59.772Z,100358.03
2023-02-19T02:52:23.719Z,100350.06
2023-02-19T02:55:31.819Z,100354.56
2023-02-19T02:58:35.848Z,100363.09
2023-02-19T03:01:57.724Z,100352.69
2023-02-19T03:05:31.407Z,100345.75
2023-02-19T03:08:38.251Z,100338.09
2023-02-19T03:12:05.425Z,100323.69
2023-02-19T03:15:30.233Z,100301.09
2023-02-19T03:18:55.543Z,100291.00
2023-02-19T03:22:10.177Z,100293.94
2023-02-19T03:25:39.298Z,100291.84
2023-02-19T03:29:04.098Z,100291.28
2023-02-19T03:32:19.286Z,100290.00
2023-02-19T03:35:28.975Z,100304.09
2023-02-19T03:38:37.027Z,100317.91
2023-02-19T03:41:55.502Z,100320.53
2023-02-19T03:45:32.067Z,100319.47
2023-02-19T03:48:50.755Z,100320.53
2023-02-19T03:52:03.870Z,100323.16
2023-02-19T03:55:12.379Z,100314.13
2023-02-19T03:58:21.820Z,100308.53
2023-02-19T04:01:37.773Z,100310.84
2023-02-19T04:04:51.021Z,100319.88
2023-02-19T04:08:00.657Z,100311.59
2023-02-19T04:11:07.047Z,100311.31
2023-02-19T04:14:37.293Z,100308.09
2023-02-19T04:18:00.561Z,100309.41
2023-02-19T04:21:05.960Z,100319.16
2023-02-19T04:24:22.355Z,100318.81
2023-02-19T04:27:25.531Z,100326.53
2023-02-19T04:30:29.395Z,100322.88
2023-02-19T04:33:32.316Z,100331.97
2023-02-19T04:36:35.634Z,100336.78
2023-02-19T04:39:38.541Z,100333.66
2023-02-19T04:42:41.775Z,100332.09
2023-02-19T04:45:44.696Z,100334.25
2023-02-19T04:48:48.185Z,100331.34
2023-02-19T04:51:52.246Z,100336.34
2023-02-19T04:54:55.591Z,100339.94
2023-02-19T04:57:58.521Z,100335.37
2023-02-19T05:01:02.092Z,100339.31
2023-02-19T05:04:05.431Z,100328.66
2023-02-19T05:07:08.711Z,100329.69
2023-02-19T05:10:11.653Z,100323.75
2023-02-19T05:13:15.725Z,100327.69
2023-02-19T05:16:18.588Z,100318.94
2023-02-19T05:19:42.565Z,100311.50
2023-02-19T05:22:46.264Z,100309.94
2023-02-19T05:26:31.242Z,100311.75
2023-02-19T05:29:34.532Z,100318.91
2023-02-19T05:32:57.985Z,100306.66
2023-02-19T05:36:22.076Z,100305.09
2023-02-19T05:39:53.737Z,100303.16
2023-02-19T05:42:56.811Z,100307.84
2023-02-19T05:46:23.439Z,100308.69
2023-02-19T05:49:46.649Z,100314.00
2023-02-19T05:53:18.669Z,100317.69
2023-02-19T05:56:27.672Z,100323.03
2023-02-19T05:59:31.720Z,100326.41
2023-02-19T06:02:34.775Z,100332.03
2023-02-19T06:05:40.656Z,100325.16
2023-02-19T06:08:43.896Z,100330.47
2023-02-19T06:11:57.530Z,100327.59
2023-02-19T06:15:04.524Z,100329.50
2023-02-19T06:18:11.565Z,100321.87
2023-02-19T06:21:16.134Z,100326.69
2023-02-19T06:24:21.533Z,100335.19
2023-02-19T06:27:44.597Z,100325.88
2023-02-19T06:30:51.630Z,100328.81
2023-02-19T06:33:58.651Z,100336.00
2023-02-19T06:37:02.775Z,100332.53
2023-02-19T06:40:26.401Z,100329.88
2023-02-19T06:43:49.618Z,100333.59
2023-02-19T06:46:55.687Z,100333.91
2023-02-19T06:50:02.141Z,100336.06
2023-02-19T06:53:05.283Z,100328.66
2023-02-19T06:56:37.589Z,100323.06
2023-02-19T06:59:43.143Z,100318.56
2023-02-19T07:02:46.674Z,100320.44
2023-02-19T07:06:09.779Z,100316.47
2023-02-19T07:09:17.833Z,100324.13
2023-02-19T07:12:30.601Z,100329.16
2023-02-19T07:15:34.408Z,100328.97
2023-02-19T07:18:38.869Z,100336.09
2023-02-19T07:21:42.551Z,100338.19
2023-02-19T07:24:47.884Z,100336.09
2023-02-19T07:27:51.363Z,100335.06
2023-02-19T07:31:01.143Z,100336.09
2023-02-19T07:34:04.540Z,100333.47
2023-02-19T07:37:07.442Z,100338.25
2023-02-19T07:40:11.001Z,100331.09
2023-02-19T07:43:14.099Z,100334.03
2023-02-19T07:46:17.514Z,100338.31
2023-02-19T07:49:20.473Z,100330.91
2023-02-19T07:52:43.586Z,100338.59
2023-02-19T07:56:25.892Z,100338.59
2023-02-19T07:59:56.566Z,100347.88
2023-02-19T08:03:19.230Z,100353.75
2023-02-19T08:06:24.597Z,100360.00
2023-02-19T08:09:27.685Z,100373.25
2023-02-19T08:12:50.016Z,100376.44
2023-02-19T08:16:26.591Z,100384.59
2023-02-19T08:19:34.009Z,100376.84
2023-02-19T08:22:37.180Z,100383.19
2023-02-19T08:25:42.691Z,100392.16
2023-02-19T08:28:46.110Z,100389.50
2023-02-19T08:32:11.163Z,100385.53
2023-02-19T08:35:20.058Z,100381.03
2023-02-19T08:38:26.787Z,100341.31
2023-02-19T08:41:33.038Z,100323.84
2023-02-19T08:44:37.093Z,100311.28
2023-02-19T08:48:00.479Z,100304.97
2023-02-19T08:51:14.680Z,100307.69
2023-02-19T08:54:39.491Z,100319.16
2023-02-19T08:57:42.879Z,100317.88
2023-02-19T09:00:50.203Z,100323.12
2023-02-19T09:04:13.537Z,100317.84
2023-02-19T09:07:20.076Z,100330.06
2023-02-19T09:10:31.750Z,100336.44
2023-02-19T09:13:57.573Z,100332.44
2023-02-19T09:17:04.202Z,100330.75
2023-02-19T09:20:26.849Z,100331.00
2023-02-19T09:23:33.621Z,100338.25
2023-02-19T09:26:56.325Z,100326.84
2023-02-19T09:30:19.650Z,100327.81
2023-02-19T09:33:22.777Z,100349.63
2023-02-19T09:36:27.110Z,100347.44
2023-02-19T09:39:40.570Z,100343.47
2023-02-19T09:42:50.770Z,100360.72
2023-02-19T09:46:03.889Z,100346.38
2023-02-19T09:49:18.465Z,100366.00
2023-02-19T09:52:46.854Z,100362.56
2023-02-19T09:56:19.053Z,100368.91
2023-02-19T09:59:50.368Z,100356.44
2023-02-19T10:03:34.507Z,100344.84
2023-02-19T10:07:03.481Z,100338.50
2023-02-19T10:10:22.535Z,100319.66
2023-02-19T10:14:09.548Z,100303.97
2023-02-19T10:17:31.377Z,100310.94
2023-02-19T10:21:00.469Z,100318.87
2023-02-19T10:24:27.468Z,100318.03
2023-02-19T10:27:51.907Z,100308.00
2023-02-19T10:31:25.123Z,100301.13
2023-02-19T10:34:48.782Z,100284.91
2023-02-19T10:38:39.216Z,100281.22
2023-02-19T10:42:23.950Z,100264.53
2023-02-19T10:45:36.316Z,100257.97
2023-02-19T10:49:22.818Z,100248.72
2023-02-19T10:52:29.250Z,100238.69
2023-02-19T10:55:37.819Z,100258.59
2023-02-19T10:59:26.242Z,100237.25
2023-02-19T11:02:31.921Z,100237.88
2023-02-19T11:05:39.417Z,100225.75
2023-02-19T11:08:55.690Z,100245.19
2023-02-19T11:11:59.593Z,100239.63
2023-02-19T11:15:25.785Z,100238.53
2023-02-19T11:18:36.651Z,100227.13
2023-02-19T11:22:01.770Z,100216.72
2023-02-19T11:25:25.627Z,100220.06
2023-02-19T11:28:44.824Z,100214.75
2023-02-19T11:31:48.376Z,100207.97
2023-02-19T11:34:53.225Z,100209.75
2023-02-19T11:38:18.363Z,100214.78
2023-02-19T11:41:47.609Z,100195.50
2023-02-19T11:44:55.526Z,100187.06
2023-02-19T11:48:33.180Z,100178.25
2023-02-19T11:51:52.677Z,100173.22
2023-02-19T11:55:13.398Z,100170.84
2023-02-19T11:59:00.426Z,100161.91
2023-02-19T12:02:22.551Z,100161.72
2023-02-19T12:06:04.867Z,100158.87
2023-02-19T12:09:48.993Z,100165.31
2023-02-19T12:13:39.823Z,100162.09
2023-02-19T12:17:26.979Z,100157.69
2023-02-19T12:21:01.853Z,100161.03
2023-02-19T12:24:27.318Z,100151.38
2023-02-19T12:28:09.847Z,100153.31
2023-02-19T12:31:49.014Z,100153.13
2023-02-19T12:35:42.436Z,100149.88
2023-02-19T12:38:53.972Z,100140.62
2023-02-19T12:42:10.669Z,100144.56
2023-02-19T12:45:28.081Z,100142.34
2023-02-19T12:48:39.827Z,100139.00
2023-02-19T12:52:09.972Z,100149.03
2023-02-19T12:55:24.910Z,100153.19
2023-02-19T12:58:35.507Z,100155.50
2023-02-19T13:01:50.060Z,100164.47
2023-02-19T13:05:06.946Z,100153.31
2023-02-19T13:08:26.292Z,100155.06
2023-02-19T13:11:41.260Z,100153.41
2023-02-19T13:15:42.649Z,100135.75
2023-02-19T13:18:59.152Z,100144.88
2023-02-19T13:22:35.813Z,100118.91
2023-02-19T13:26:10.924Z,100132.22
2023-02-19T13:30:01.832Z,100124.56
2023-02-19T13:33:33.336Z,100117.19
2023-02-19T13:36:37.148Z,100115.78
2023-02-19T13:39:51.536Z,100110.69
2023-02-19T13:42:59.870Z,100105.03
2023-02-19T13:46:10.205Z,100104.59
2023-02-19T13:49:23.398Z,100107.88
2023-02-19T13:52:29.281Z,100112.28
2023-02-19T13:55:42.995Z,100117.50
2023-02-19T13:59:14.528Z,100117.50
2023-02-19T14:02:37.564Z,100126.69
2023-02-19T14:06:06.130Z,100125.22
2023-02-19T14:09:41.281Z,100122.13
2023-02-19T14:13:08.380Z,100111.63
2023-02-19T14:16:40.473Z,100132.75
2023-02-19T14:20:17.946Z,100131.72
2023-02-19T14:23:24.365Z,100154.66
2023-02-19T14:26:47.544Z,100174.66
2023-02-19T14:29:52.968Z,100236.03
2023-02-19T14:33:19.157Z,100263.69
2023-02-19T14:37:02.217Z,100250.03
2023-02-19T14:40:37.117Z,100228.47
2023-02-19T14:44:03.344Z,100222.03
2023-02-19T14:47:48.865Z,100232.47
2023-02-19T14:51:40.644Z,100222.09
2023-02-19T14:55:36.324Z,100224.75
2023-02-19T14:59:20.181Z,100224.97
2023-02-19T15:02:44.230Z,100226.53
2023-02-19T15:05:58.751Z,100212.44
2023-02-19T15:09:07.191Z,100199.53
2023-02-19T15:12:35.268Z,100193.91
2023-02-19T15:16:09.627Z,100200.91
2023-02-19T15:19:36.626Z,100213.47
2023-02-19T15:23:25.137Z,100214.03
2023-02-19T15:26:54.356Z,100235.84
2023-02-19T15:30:25.401Z,100245.28
2023-02-19T15:33:30.128Z,100252.72
2023-02-19T15:37:14.504Z,100267.19
2023-02-19T15:40:57.946Z,100279.81
2023-02-19T15:44:52.597Z,100285.50
2023-02-19T15:48:37.932Z,100289.25
2023-02-19T15:52:10.719Z,100284.00
2023-02-19T15:55:42.592Z,100280.97
2023-02-19T15:59:34.249Z,100290.53
2023-02-19T16:02:59.906Z,100298.50
2023-02-19T16:06:16.303Z,100295.13
2023-02-19T16:09:45.820Z,100295.41
2023-02-19T16:13:12.097Z,100309.72
2023-02-19T16:16:31.928Z,100343.06
2023-02-19T16:19:59.999Z,100347.56
2023-02-19T16:23:11.186Z,100364.66
2023-02-19T16:26:24.932Z,100372.13
2023-02-19T16:29:52.346Z,100370.53
2023-02-19T16:33:36.885Z,100368.38
2023-02-19T16:36:52.663Z,100361.44
2023-02-19T18:20:41.464Z,100507.53
2023-02-19T18:24:08.831Z,100503.25
2023-02-19T18:27:12.124Z,100486.16
2023-02-19T18:30:19.184Z,100487.69
2023-02-19T18:33:22.480Z,100480.25
2023-02-19T18:36:26.121Z,100471.97
2023-02-19T18:39:29.712Z,100478.63
2023-02-19T18:42:36.096Z,100471.50
2023-02-19T18:45:39.833Z,100480.09
2023-02-19T18:48:52.340Z,100467.37
2023-02-19T18:51:56.046Z,100470.13
2023-02-19T18:54:59.654Z,100476.75
2023-02-19T18:58:03.181Z,100473.41
2023-02-19T19:01:07.756Z,100477.16
2023-02-19T19:04:32.182Z,100489.62
2023-02-19T19:07:45.869Z,100487.69
2023-02-19T19:10:49.908Z,100487.09
2023-02-19T19:13:54.100Z,100486.97
2023-02-19T19:16:57.378Z,100489.06
2023-02-19T19:20:10.152Z,100497.75
2023-02-19T19:23:14.031Z,100497.75
2023-02-19T19:26:26.134Z,100520.72
2023-02-19T19:30:08.045Z,100524.59
2023-02-19T20:00:03.690Z,100554.56
2023-02-19T20:03:18.889Z,100569.34
2023-02-19T20:06:32.709Z,100567.31
2023-02-19T20:09:36.319Z,100562.81
2023-02-19T20:12:56.436Z,100575.72
2023-02-19T20:16:00.390Z,100585.31
2023-02-19T20:19:09.139Z,100590.53
2023-02-19T20:30:11.328Z,100606.41
2023-02-19T20:33:17.403Z,100622.63
2023-02-19T20:36:21.090Z,100637.72
2023-02-19T20:39:43.371Z,100638.44
2023-02-19T20:42:46.982Z,100653.31
2023-02-19T20:45:51.074Z,100646.91
2023-02-19T20:48:57.999Z,100663.75
2023-02-19T20:52:06.763Z,100671.59
2023-02-19T20:55:09.876Z,100695.28
2023-02-19T20:58:32.934Z,100696.81
2023-02-19T21:01:36.534Z,100720.91
2023-02-19T21:04:40.745Z,100730.00
2023-02-19T21:07:44.110Z,100738.97
2023-02-19T21:10:49.836Z,100753.31
2023-02-19T21:13:53.467Z,100751.91
2023-02-19T21:16:58.050Z,100751.72
2023-02-19T21:20:00.989Z,100762.44
2023-02-19T21:23:05.036Z,100761.41
2023-02-19T21:26:36.556Z,100759.72
2023-02-19T21:29:39.751Z,100763.50
2023-02-19T21:32:42.664Z,100763.06
2023-02-19T21:35:46.160Z,100763.75
2023-02-19T21:38:51.130Z,100761.56
2023-02-19T21:41:54.805Z,100762.81
2023-02-19T21:44:57.861Z,100768.44
2023-02-19T21:48:01.081Z,100780.59
2023-02-19T21:51:37.043Z,100783.59
2023-02-19T21:54:40.168Z,100776.00
2023-02-19T21:57:43.052Z,100781.03
2023-02-19T22:01:03.951Z,100794.47
2023-02-19T22:04:24.513Z,100807.44
2023-02-19T22:07:27.327Z,100815.34
2023-02-19T22:10:32.686Z,100820.06
2023-02-19T22:13:35.611Z,100826.63
2023-02-19T22:16:43.261Z,100831.53
2023-02-19T22:19:49.537Z,100835.75
2023-02-19T22:22:52.804Z,100827.19
2023-02-19T22:26:00.573Z,100839.12
2023-02-19T22:29:07.355Z,100845.31
2023-02-19T22:32:11.218Z,100848.84
2023-02-19T22:35:16.011Z,100850.59
2023-02-19T22:38:18.925Z,100860.34
2023-02-19T22:41:22.892Z,100867.22
2023-02-19T22:44:26.090Z,100867.34
2023-02-19T22:47:29.409Z,100874.16
2023-02-19T22:50:32.461Z,100881.06
2023-02-19T22:53:35.670Z,100886.28
2023-02-19T22:56:38.497Z,100891.19
2023-02-19T22:59:41.600Z,100884.78
2023-02-19T23:02:46.888Z,100895.84
2023-02-19T23:05:50.178Z,100899.06
2023-02-19T23:08:54.709Z,100908.88
2023-02-19T23:12:10.548Z,100905.16
2023-02-19T23:15:13.440Z,100912.53
2023-02-19T23:18:16.661Z,100923.06
2023-02-19T23:21:20.584Z,100913.78
2023-02-19T23:24:23.880Z,100920.28
2023-02-19T23:27:28.528Z,100926.25
